Impacts TAF Board
For situational awareness. Not to be used for flight planning purposes.
IDs:

KMSY - New Orleans/Armstron, LA, US

Issued at 2339 UTC 05 Dec 2020
Updated at 0230 UTC 06 Dec 2020
Potential Impact None Slight Moderate High
Time<<06/15Z 06/16Z 06/17Z 06/18Z 06/19Z 06/20Z 06/21Z 06/22Z 06/23Z 07/00Z 07/01Z 07/02Z 07/03Z>>
Type PRVL PRVL PRVL PRVL PRVL PRVL PRVL PRVL PRVL PRVL PRVL PRVL PRVL
VIS >6 >6 >6 >6 >6 >6 >6 >6 >6 >6 >6 >6 >6
CIG 150 150 150 150 150 45 45 45 45 45 25 25 25
Cover OVC OVC OVC OVC OVC OVC OVC OVC OVC OVC BKN BKN BKN
FltCat VFR VFR VFR VFR VFR VFR VFR VFR VFR VFR MVFR MVFR MVFR
WX -- -- -- -- -- -SHRA -SHRA -SHRA -SHRA -SHRA -- -- --
WDir VRB VRB VRB VRB VRB 330 330 330 330 330 290 290 290
WSpd 3 3 3 3 3 5 5 5 5 5 5 5 5
WGst -- -- -- -- -- -- -- -- -- -- -- -- --
R01/19
XWnd VRB VRB VRB VRB VRB 4 4 4 4 4 5 5 5
HWnd VRB VRB VRB VRB VRB 4 4 4 4 4 0 0 0
R10/28
XWnd VRB VRB VRB VRB VRB 4 4 4 4 4 0 0 0
HWnd VRB VRB VRB VRB VRB -4 -4 -4 -4 -4 -5 -5 -5
Raw TAF
KMSY 052339Z 0600/0706 VRB03KT P6SM OVC150
  FM062000 33005KT P6SM -SHRA SCT020 OVC045
  FM070100 29005KT P6SM BKN025
  FM070500 28005KT P6SM SCT050


METAR Board
Radar Display
Forecast Discussion
For situational awareness. Not to be used for flight planning purposes.